createdAt,value
2023-05-06T00:00:26.917Z,94853.00
2023-05-06T00:01:26.914Z,94851.00
2023-05-06T00:02:26.952Z,94851.00
2023-05-06T00:03:27.117Z,94851.00
2023-05-06T00:04:27.118Z,94849.00
2023-05-06T00:05:27.084Z,94849.00
2023-05-06T00:06:27.097Z,94847.00
2023-05-06T00:07:27.084Z,94849.00
2023-05-06T00:08:27.099Z,94849.00
2023-05-06T00:09:27.116Z,94849.00
2023-05-06T00:10:27.189Z,94851.00
2023-05-06T00:11:27.221Z,94851.00
2023-05-06T00:12:27.228Z,94853.00
2023-05-06T00:13:27.243Z,94851.00
2023-05-06T00:14:27.265Z,94849.00
2023-05-06T00:15:27.808Z,94849.00
2023-05-06T00:16:27.413Z,94845.00
2023-05-06T00:17:27.376Z,94843.00
2023-05-06T00:18:27.385Z,94843.00
2023-05-06T00:19:27.458Z,94843.00
2023-05-06T00:20:27.456Z,94841.00
2023-05-06T00:21:27.457Z,94839.00
2023-05-06T00:22:27.514Z,94839.00
2023-05-06T00:23:27.552Z,94835.00
2023-05-06T00:24:27.565Z,94835.00
2023-05-06T00:25:27.585Z,94835.00
2023-05-06T00:26:27.626Z,94835.00
2023-05-06T00:27:27.663Z,94831.00
2023-05-06T00:28:27.729Z,94833.00
2023-05-06T00:29:27.752Z,94835.00
2023-05-06T00:30:27.727Z,94837.00
2023-05-06T00:31:27.814Z,94835.00
2023-05-06T00:32:27.868Z,94835.00
2023-05-06T00:33:27.870Z,94835.00
2023-05-06T00:34:27.851Z,94833.00
2023-05-06T00:35:27.884Z,94833.00
2023-05-06T00:36:27.889Z,94831.00
2023-05-06T00:37:27.976Z,94831.00
2023-05-06T00:38:27.959Z,94831.00
2023-05-06T00:39:28.044Z,94829.00
2023-05-06T00:40:28.090Z,94831.00
2023-05-06T00:41:28.024Z,94833.00
2023-05-06T00:42:28.152Z,94831.00
2023-05-06T00:43:28.081Z,94831.00
2023-05-06T00:44:28.189Z,94829.00
2023-05-06T00:45:28.146Z,94825.00
2023-05-06T00:46:28.209Z,94823.00
2023-05-06T00:47:28.179Z,94821.00
2023-05-06T00:48:28.200Z,94819.00
2023-05-06T00:49:28.289Z,94813.00
2023-05-06T00:50:28.344Z,94813.00
2023-05-06T00:51:28.313Z,94813.00
2023-05-06T00:52:28.324Z,94815.00
2023-05-06T00:53:28.342Z,94813.00
2023-05-06T00:54:28.404Z,94817.00
2023-05-06T00:55:28.485Z,94815.00
2023-05-06T00:56:28.445Z,94815.00
2023-05-06T00:57:28.415Z,94815.00
2023-05-06T00:58:28.439Z,94817.00
2023-05-06T00:59:28.484Z,94813.00
2023-05-06T01:00:28.542Z,94813.00
2023-05-06T01:01:28.615Z,94812.00
2023-05-06T01:02:43.421Z,94812.00
2023-05-06T01:03:29.741Z,94812.00
2023-05-06T01:04:28.542Z,94812.00
2023-05-06T01:05:28.663Z,94812.00
2023-05-06T01:06:28.541Z,94810.00
2023-05-06T01:07:28.577Z,94808.00
2023-05-06T01:08:28.537Z,94806.00
2023-05-06T01:09:28.575Z,94806.00
2023-05-06T01:10:28.535Z,94804.00
2023-05-06T01:11:28.533Z,94802.00
2023-05-06T01:12:28.511Z,94800.00
2023-05-06T01:13:28.824Z,94802.00
2023-05-06T01:14:28.548Z,94802.00
2023-05-06T01:15:28.494Z,94802.00
2023-05-06T01:16:28.549Z,94808.00
2023-05-06T01:17:28.534Z,94808.00
2023-05-06T01:18:28.521Z,94804.00
2023-05-06T01:19:28.520Z,94804.00
2023-05-06T01:20:28.856Z,94804.00
2023-05-06T01:21:28.559Z,94802.00
2023-05-06T01:22:28.631Z,94802.00
2023-05-06T01:23:28.627Z,94802.00
2023-05-06T01:24:28.673Z,94802.00
2023-05-06T01:25:28.683Z,94804.00
2023-05-06T01:26:28.714Z,94806.00
2023-05-06T01:27:28.721Z,94804.00
2023-05-06T01:28:28.785Z,94804.00
2023-05-06T01:29:28.766Z,94802.00
2023-05-06T01:30:28.840Z,94804.00
2023-05-06T01:31:28.873Z,94802.00
2023-05-06T01:32:28.905Z,94804.00
2023-05-06T01:33:28.885Z,94802.00
2023-05-06T01:34:28.898Z,94802.00
2023-05-06T01:35:28.980Z,94802.00
2023-05-06T01:36:28.950Z,94802.00
2023-05-06T01:37:29.006Z,94804.00
2023-05-06T01:38:29.335Z,94804.00
2023-05-06T01:39:29.061Z,94804.00
2023-05-06T01:40:29.077Z,94804.00
2023-05-06T01:41:29.070Z,94804.00
2023-05-06T01:42:29.158Z,94802.00
2023-05-06T01:43:29.219Z,94800.00
2023-05-06T01:44:29.207Z,94800.00
2023-05-06T01:45:29.337Z,94802.00
2023-05-06T01:46:29.302Z,94802.00
2023-05-06T01:47:29.259Z,94802.00
2023-05-06T01:48:29.269Z,94800.00
2023-05-06T01:49:29.285Z,94800.00
2023-05-06T01:50:29.838Z,94802.00
2023-05-06T01:51:29.375Z,94802.00
2023-05-06T01:52:29.402Z,94802.00
2023-05-06T01:53:29.428Z,94800.00
2023-05-06T01:54:29.468Z,94802.00
2023-05-06T01:55:29.539Z,94800.00
2023-05-06T01:56:29.519Z,94796.00
2023-05-06T01:57:29.542Z,94798.00
2023-05-06T01:58:29.657Z,94796.00
2023-05-06T01:59:29.768Z,94798.00
2023-05-06T02:00:29.652Z,94794.00
2023-05-06T02:01:29.712Z,94796.00
2023-05-06T02:02:29.865Z,94796.00
2023-05-06T02:03:29.881Z,94796.00
2023-05-06T02:04:29.759Z,94794.00
2023-05-06T02:05:29.783Z,94796.00
2023-05-06T02:06:29.804Z,94796.00
2023-05-06T02:07:29.818Z,94796.00
2023-05-06T02:08:29.887Z,94798.00
2023-05-06T02:09:30.004Z,94798.00
2023-05-06T02:10:29.934Z,94796.00
2023-05-06T02:11:29.943Z,94794.00
2023-05-06T02:12:29.963Z,94790.00
2023-05-06T02:13:30.025Z,94790.00
2023-05-06T02:14:30.069Z,94790.00
2023-05-06T02:15:30.076Z,94792.00
2023-05-06T02:16:30.110Z,94794.00
2023-05-06T02:17:30.122Z,94794.00
2023-05-06T02:18:30.212Z,94794.00
2023-05-06T02:19:30.159Z,94794.00
2023-05-06T02:20:30.221Z,94792.00
2023-05-06T02:21:30.230Z,94794.00
2023-05-06T02:22:30.308Z,94790.00
2023-05-06T02:23:30.324Z,94792.00
2023-05-06T02:24:30.347Z,94788.00
2023-05-06T02:25:30.372Z,94794.00
2023-05-06T02:26:30.369Z,94794.00
2023-05-06T02:27:30.402Z,94798.00
2023-05-06T02:28:30.847Z,94798.00
2023-05-06T02:29:30.486Z,94794.00
2023-05-06T02:30:30.522Z,94794.00
2023-05-06T02:31:30.588Z,94790.00
2023-05-06T02:32:30.573Z,94788.00
2023-05-06T02:33:30.598Z,94788.00
2023-05-06T02:34:30.668Z,94786.00
2023-05-06T02:35:30.638Z,94784.00
2023-05-06T02:36:30.682Z,94786.00
2023-05-06T02:37:30.689Z,94786.00
2023-05-06T02:38:30.767Z,94790.00
2023-05-06T02:39:30.763Z,94788.00
2023-05-06T02:40:30.785Z,94792.00
2023-05-06T02:41:30.814Z,94790.00
2023-05-06T02:42:30.852Z,94790.00
2023-05-06T02:43:30.858Z,94792.00
2023-05-06T02:44:30.886Z,94792.00
2023-05-06T02:45:31.382Z,94792.00
2023-05-06T02:46:30.936Z,94792.00
2023-05-06T02:47:31.077Z,94792.00
2023-05-06T02:48:30.979Z,94792.00
2023-05-06T02:49:31.017Z,94792.00
2023-05-06T02:50:31.112Z,94792.00
2023-05-06T02:51:31.097Z,94794.00
2023-05-06T02:52:31.125Z,94792.00
2023-05-06T02:53:31.137Z,94790.00
2023-05-06T02:54:31.151Z,94788.00
2023-05-06T02:55:31.216Z,94788.00
2023-05-06T02:56:31.285Z,94784.00
2023-05-06T02:57:31.263Z,94784.00
2023-05-06T02:58:31.285Z,94784.00
2023-05-06T02:59:31.295Z,94784.00
2023-05-06T03:00:31.341Z,94786.00
2023-05-06T03:01:31.429Z,94784.00
2023-05-06T03:02:32.419Z,94780.00
2023-05-06T03:03:31.884Z,94784.00
2023-05-06T03:04:31.481Z,94784.00
2023-05-06T03:05:31.513Z,94784.00
2023-05-06T03:06:31.578Z,94782.00
2023-05-06T03:07:31.542Z,94780.00
2023-05-06T03:08:31.567Z,94782.00
2023-05-06T03:09:31.585Z,94782.00
2023-05-06T03:10:31.652Z,94782.00
2023-05-06T03:11:31.618Z,94782.00
2023-05-06T03:12:31.648Z,94784.00
2023-05-06T03:13:31.704Z,94778.00
2023-05-06T03:14:31.741Z,94776.00
2023-05-06T03:15:31.792Z,94774.00
2023-05-06T03:16:31.862Z,94772.00
2023-05-06T03:17:31.843Z,94768.00
2023-05-06T03:18:31.864Z,94772.00
2023-05-06T03:19:31.877Z,94765.00
2023-05-06T03:20:31.897Z,94765.00
2023-05-06T03:21:31.992Z,94765.00
2023-05-06T03:22:32.020Z,94763.00
2023-05-06T03:23:32.017Z,94765.00
2023-05-06T03:24:32.041Z,94763.00
2023-05-06T03:25:32.043Z,94768.00
2023-05-06T03:26:32.092Z,94770.00
2023-05-06T03:27:32.123Z,94768.00
2023-05-06T03:28:32.146Z,94768.00
2023-05-06T03:29:32.154Z,94766.00
2023-05-06T03:30:32.220Z,94765.00
2023-05-06T03:31:32.312Z,94765.00
2023-05-06T03:32:32.280Z,94763.00
2023-05-06T03:33:32.282Z,94761.00
2023-05-06T03:34:32.293Z,94761.00
2023-05-06T03:35:32.348Z,94761.00
2023-05-06T03:36:32.413Z,94766.00
2023-05-06T03:37:32.405Z,94763.00
2023-05-06T03:38:32.519Z,94766.00
2023-05-06T03:39:32.460Z,94772.00
2023-05-06T03:40:32.513Z,94770.00
2023-05-06T03:41:32.568Z,94770.00
2023-05-06T03:42:32.617Z,94768.00
2023-05-06T03:43:32.616Z,94770.00
2023-05-06T03:44:32.688Z,94770.00
2023-05-06T03:45:32.685Z,94770.00
2023-05-06T03:46:32.768Z,94772.00
2023-05-06T03:47:32.728Z,94776.00
2023-05-06T03:48:32.787Z,94778.00
2023-05-06T03:49:32.815Z,94778.00
2023-05-06T03:50:32.899Z,94780.00
2023-05-06T03:51:32.871Z,94782.00
2023-05-06T03:52:32.905Z,94780.00
2023-05-06T03:53:32.932Z,94780.00
2023-05-06T03:54:33.065Z,94782.00
2023-05-06T03:55:33.025Z,94780.00
2023-05-06T03:56:33.038Z,94784.00
2023-05-06T03:57:33.038Z,94786.00
2023-05-06T03:58:33.072Z,94788.00
2023-05-06T03:59:33.121Z,94790.00
2023-05-06T04:00:33.409Z,94792.00
2023-05-06T04:01:33.163Z,94796.00
2023-05-06T04:02:33.354Z,94802.00
2023-05-06T04:03:33.377Z,94808.00
2023-05-06T04:04:33.308Z,94812.00
2023-05-06T04:05:33.386Z,94812.00
2023-05-06T04:06:33.364Z,94817.00
2023-05-06T04:07:33.389Z,94817.00
2023-05-06T04:08:33.412Z,94821.00
2023-05-06T04:09:33.437Z,94823.00
2023-05-06T04:10:33.484Z,94823.00
2023-05-06T04:11:33.559Z,94823.00
2023-05-06T04:12:33.578Z,94819.00
2023-05-06T04:13:33.585Z,94817.00
2023-05-06T04:14:33.617Z,94815.00
2023-05-06T04:15:33.671Z,94815.00
2023-05-06T04:16:33.763Z,94813.00
2023-05-06T04:17:33.748Z,94815.00
2023-05-06T04:18:33.775Z,94813.00
2023-05-06T04:19:33.810Z,94812.00
2023-05-06T04:20:33.829Z,94812.00
2023-05-06T04:21:33.840Z,94806.00
2023-05-06T04:22:33.885Z,94806.00
2023-05-06T04:23:33.897Z,94802.00
2023-05-06T04:24:33.954Z,94800.00
2023-05-06T04:25:33.985Z,94798.00
2023-05-06T04:26:34.048Z,94800.00
2023-05-06T04:27:34.073Z,94798.00
2023-05-06T04:28:34.147Z,94802.00
2023-05-06T04:29:34.096Z,94800.00
2023-05-06T04:30:34.178Z,94804.00
2023-05-06T04:31:34.222Z,94800.00
2023-05-06T04:32:34.350Z,94802.00
2023-05-06T04:33:34.279Z,94804.00
2023-05-06T04:34:34.288Z,94804.00
2023-05-06T04:35:34.331Z,94804.00
2023-05-06T04:36:34.351Z,94802.00
2023-05-06T04:37:34.374Z,94802.00
2023-05-06T04:38:34.440Z,94806.00
2023-05-06T04:39:34.444Z,94808.00
2023-05-06T04:40:34.472Z,94813.00
2023-05-06T04:41:34.545Z,94812.00
2023-05-06T04:42:34.644Z,94813.00
2023-05-06T04:43:34.569Z,94812.00
2023-05-06T04:44:34.599Z,94812.00
2023-05-06T04:45:34.704Z,94813.00
2023-05-06T04:46:34.676Z,94815.00
2023-05-06T04:47:34.743Z,94817.00
2023-05-06T04:48:34.749Z,94817.00
2023-05-06T04:49:34.799Z,94821.00
2023-05-06T04:50:34.813Z,94815.00
2023-05-06T04:51:34.963Z,94817.00
2023-05-06T04:52:34.875Z,94817.00
2023-05-06T04:53:34.923Z,94821.00
2023-05-06T04:54:34.975Z,94819.00
2023-05-06T04:55:34.996Z,94819.00
2023-05-06T04:56:35.018Z,94819.00
2023-05-06T04:57:35.039Z,94821.00
2023-05-06T04:58:35.341Z,94821.00
2023-05-06T04:59:35.117Z,94821.00
2023-05-06T05:00:35.204Z,94819.00
2023-05-06T05:01:35.224Z,94819.00
2023-05-06T05:02:35.356Z,94819.00
2023-05-06T05:03:35.299Z,94819.00
2023-05-06T05:04:35.274Z,94819.00
2023-05-06T05:05:35.305Z,94819.00
2023-05-06T05:06:35.353Z,94819.00
2023-05-06T05:07:35.361Z,94821.00
2023-05-06T05:08:35.393Z,94819.00
2023-05-06T05:09:35.408Z,94821.00
2023-05-06T05:10:35.444Z,94819.00
2023-05-06T05:11:35.455Z,94821.00
2023-05-06T05:12:35.573Z,94819.00
2023-05-06T05:13:35.545Z,94825.00
2023-05-06T05:14:35.584Z,94823.00
2023-05-06T05:15:35.618Z,94823.00
2023-05-06T05:16:35.659Z,94825.00
2023-05-06T05:17:35.692Z,94827.00
2023-05-06T05:18:35.673Z,94827.00
2023-05-06T05:19:35.681Z,94827.00
2023-05-06T05:20:35.734Z,94831.00
2023-05-06T05:21:35.749Z,94833.00
2023-05-06T05:22:35.756Z,94829.00
2023-05-06T05:23:35.998Z,94827.00
2023-05-06T05:24:35.813Z,94829.00
2023-05-06T05:25:35.855Z,94827.00
2023-05-06T05:26:35.893Z,94827.00
2023-05-06T05:27:35.891Z,94829.00
2023-05-06T05:28:35.942Z,94827.00
2023-05-06T05:29:35.967Z,94827.00
2023-05-06T05:30:36.020Z,94825.00
2023-05-06T05:31:36.022Z,94825.00
2023-05-06T05:32:36.052Z,94825.00
2023-05-06T05:33:36.188Z,94825.00
2023-05-06T05:34:36.136Z,94825.00
2023-05-06T05:35:36.171Z,94821.00
2023-05-06T05:36:36.188Z,94821.00
2023-05-06T05:37:36.183Z,94817.00
2023-05-06T05:38:36.211Z,94817.00
2023-05-06T05:39:36.251Z,94815.00
2023-05-06T05:40:36.350Z,94817.00
2023-05-06T05:41:36.297Z,94823.00
2023-05-06T05:42:36.338Z,94829.00
2023-05-06T05:43:36.380Z,94829.00
2023-05-06T05:44:36.441Z,94827.00
2023-05-06T05:45:36.461Z,94821.00
2023-05-06T05:46:36.685Z,94821.00
2023-05-06T05:47:36.514Z,94823.00
2023-05-06T05:48:36.504Z,94819.00
2023-05-06T05:49:36.536Z,94817.00
2023-05-06T05:50:36.570Z,94813.00
2023-05-06T05:51:36.608Z,94812.00
2023-05-06T05:52:36.698Z,94810.00
2023-05-06T05:53:36.718Z,94810.00
2023-05-06T05:54:36.678Z,94813.00
2023-05-06T05:55:36.758Z,94819.00
2023-05-06T05:56:36.758Z,94823.00
2023-05-06T05:57:36.785Z,94827.00
2023-05-06T05:58:36.809Z,94829.00
2023-05-06T05:59:36.881Z,94827.00
2023-05-06T06:00:36.864Z,94829.00
2023-05-06T06:01:36.914Z,94831.00
2023-05-06T06:02:37.049Z,94831.00
2023-05-06T06:03:37.082Z,94831.00
2023-05-06T06:04:37.011Z,94829.00
2023-05-06T06:05:37.024Z,94829.00
2023-05-06T06:06:37.105Z,94831.00
2023-05-06T06:07:37.115Z,94829.00
2023-05-06T06:08:37.174Z,94825.00
2023-05-06T06:09:37.176Z,94831.00
2023-05-06T06:10:37.273Z,94829.00
2023-05-06T06:11:37.239Z,94831.00
2023-05-06T06:12:37.308Z,94831.00
2023-05-06T06:13:37.362Z,94831.00
2023-05-06T06:14:37.341Z,94831.00
2023-05-06T06:15:37.355Z,94831.00
2023-05-06T06:16:37.482Z,94837.00
2023-05-06T06:17:37.452Z,94835.00
2023-05-06T06:18:38.100Z,94833.00
2023-05-06T06:19:37.451Z,94831.00
2023-05-06T06:20:37.531Z,94831.00
2023-05-06T06:21:37.549Z,94829.00
2023-05-06T06:22:37.586Z,94825.00
2023-05-06T06:23:37.949Z,94823.00
2023-05-06T06:24:37.659Z,94821.00
2023-05-06T06:25:37.632Z,94821.00
2023-05-06T06:26:37.714Z,94821.00
2023-05-06T06:27:37.708Z,94823.00
2023-05-06T06:28:37.751Z,94819.00
2023-05-06T06:29:37.774Z,94821.00
2023-05-06T06:30:37.835Z,94819.00
2023-05-06T06:31:40.330Z,94817.00
2023-05-06T06:32:37.954Z,94817.00
2023-05-06T06:33:37.796Z,94819.00
2023-05-06T06:34:37.845Z,94817.00
2023-05-06T06:35:37.808Z,94815.00
2023-05-06T06:36:37.805Z,94817.00
2023-05-06T06:37:37.759Z,94817.00
2023-05-06T06:38:37.770Z,94815.00
2023-05-06T06:39:37.784Z,94819.00
2023-05-06T06:40:37.758Z,94821.00
2023-05-06T06:41:37.752Z,94819.00
2023-05-06T06:42:38.473Z,94821.00
2023-05-06T06:43:37.981Z,94819.00
2023-05-06T06:44:37.741Z,94821.00
2023-05-06T06:45:37.726Z,94819.00
2023-05-06T06:46:37.720Z,94821.00
2023-05-06T06:47:37.774Z,94817.00
2023-05-06T06:48:37.743Z,94819.00
2023-05-06T06:49:37.700Z,94817.00
2023-05-06T06:50:37.840Z,94817.00
2023-05-06T06:51:37.730Z,94819.00
2023-05-06T06:52:37.681Z,94819.00
2023-05-06T06:53:37.678Z,94817.00
2023-05-06T06:54:37.695Z,94815.00
2023-05-06T06:55:37.687Z,94815.00
2023-05-06T06:56:37.660Z,94813.00
2023-05-06T06:57:37.674Z,94813.00
2023-05-06T06:58:37.639Z,94812.00
2023-05-06T06:59:37.656Z,94813.00
2023-05-06T07:00:37.622Z,94813.00
2023-05-06T07:01:37.819Z,94812.00
2023-05-06T07:02:37.645Z,94810.00
2023-05-06T07:03:37.627Z,94810.00
2023-05-06T07:04:37.645Z,94806.00
2023-05-06T07:05:37.612Z,94806.00
2023-05-06T07:06:37.632Z,94804.00
2023-05-06T07:07:37.556Z,94804.00
2023-05-06T07:08:37.573Z,94808.00
2023-05-06T07:09:39.524Z,94806.00
2023-05-06T07:10:37.743Z,94804.00
2023-05-06T07:11:37.782Z,94802.00
2023-05-06T07:12:37.868Z,94800.00
2023-05-06T07:13:37.814Z,94800.00
2023-05-06T07:14:37.823Z,94800.00
2023-05-06T07:15:37.957Z,94798.00
2023-05-06T07:16:37.917Z,94796.00
2023-05-06T07:17:37.987Z,94794.00
2023-05-06T07:18:37.948Z,94796.00
2023-05-06T07:19:37.964Z,94794.00
2023-05-06T07:20:37.996Z,94788.00
2023-05-06T07:21:37.999Z,94786.00
2023-05-06T07:22:38.179Z,94786.00
2023-05-06T07:23:38.072Z,94786.00
2023-05-06T07:24:38.138Z,94792.00
2023-05-06T07:25:38.132Z,94790.00
2023-05-06T07:26:38.138Z,94790.00
2023-05-06T07:27:38.171Z,94790.00
2023-05-06T07:28:38.180Z,94790.00
2023-05-06T07:29:38.203Z,94790.00
2023-05-06T07:30:38.230Z,94792.00
2023-05-06T07:31:38.348Z,94790.00
2023-05-06T07:32:38.327Z,94790.00
2023-05-06T07:33:38.309Z,94792.00
2023-05-06T07:34:38.309Z,94788.00
2023-05-06T07:35:38.352Z,94790.00
2023-05-06T07:36:40.002Z,94790.00
2023-05-06T07:37:38.428Z,94788.00
2023-05-06T07:38:38.425Z,94790.00
2023-05-06T07:39:38.418Z,94788.00
2023-05-06T07:40:38.453Z,94790.00
2023-05-06T07:41:38.479Z,94790.00
2023-05-06T07:42:39.259Z,94794.00
2023-05-06T07:43:38.525Z,94794.00
2023-05-06T07:44:38.527Z,94790.00
2023-05-06T07:45:38.569Z,94788.00
2023-05-06T07:46:38.695Z,94788.00
2023-05-06T07:47:38.681Z,94788.00
2023-05-06T07:48:38.592Z,94788.00
2023-05-06T07:49:38.603Z,94788.00
2023-05-06T07:50:38.651Z,94790.00
2023-05-06T07:51:38.666Z,94790.00
2023-05-06T07:52:38.701Z,94790.00
2023-05-06T07:53:38.714Z,94792.00
2023-05-06T07:54:38.723Z,94792.00
2023-05-06T07:55:38.712Z,94792.00
2023-05-06T07:56:38.761Z,94790.00
2023-05-06T07:57:38.801Z,94790.00
2023-05-06T07:58:38.798Z,94788.00
2023-05-06T07:59:38.818Z,94790.00
2023-05-06T08:00:38.813Z,94788.00
2023-05-06T08:01:38.849Z,94786.00
2023-05-06T08:02:38.992Z,94790.00
2023-05-06T08:03:38.967Z,94790.00
2023-05-06T08:04:38.932Z,94790.00
2023-05-06T08:05:38.924Z,94790.00
2023-05-06T08:06:38.942Z,94788.00
2023-05-06T08:07:38.941Z,94794.00
2023-05-06T08:08:38.959Z,94788.00
2023-05-06T08:09:39.008Z,94792.00
2023-05-06T08:10:39.036Z,94790.00
2023-05-06T08:11:39.035Z,94794.00
2023-05-06T08:12:39.164Z,94794.00
2023-05-06T08:13:39.079Z,94794.00
2023-05-06T08:14:39.119Z,94794.00
2023-05-06T08:15:39.093Z,94798.00
2023-05-06T08:16:39.164Z,94800.00
2023-05-06T08:17:39.183Z,94798.00
2023-05-06T08:18:39.131Z,94798.00
2023-05-06T08:19:39.145Z,94802.00
2023-05-06T08:20:39.219Z,94802.00
2023-05-06T08:21:39.178Z,94802.00
2023-05-06T08:22:39.287Z,94804.00
2023-05-06T08:23:39.306Z,94800.00
2023-05-06T08:24:39.313Z,94804.00
2023-05-06T08:25:39.296Z,94804.00
2023-05-06T08:26:39.325Z,94804.00
2023-05-06T08:27:39.335Z,94802.00
2023-05-06T08:28:39.326Z,94804.00
2023-05-06T08:29:39.381Z,94804.00
2023-05-06T08:30:39.420Z,94806.00
2023-05-06T08:31:39.397Z,94802.00
2023-05-06T08:32:39.406Z,94808.00
2023-05-06T08:33:39.430Z,94808.00
2023-05-06T08:34:39.420Z,94806.00
2023-05-06T08:35:39.465Z,94810.00
2023-05-06T08:36:39.512Z,94806.00
2023-05-06T08:37:39.466Z,94808.00
2023-05-06T08:38:39.516Z,94810.00
2023-05-06T08:39:39.576Z,94810.00
2023-05-06T08:40:39.543Z,94810.00
2023-05-06T08:41:39.556Z,94810.00
2023-05-06T08:42:39.623Z,94810.00
2023-05-06T08:43:39.646Z,94812.00
2023-05-06T08:44:39.639Z,94812.00
2023-05-06T08:45:39.653Z,94810.00
2023-05-06T08:46:39.669Z,94810.00
2023-05-06T08:47:39.755Z,94810.00
2023-05-06T08:48:39.693Z,94813.00
2023-05-06T08:49:39.855Z,94812.00
2023-05-06T08:50:39.732Z,94812.00
2023-05-06T08:51:39.764Z,94810.00
2023-05-06T08:52:39.773Z,94812.00
2023-05-06T08:53:39.801Z,94813.00
2023-05-06T08:54:39.815Z,94813.00
2023-05-06T08:55:39.827Z,94810.00
2023-05-06T08:56:39.847Z,94812.00
2023-05-06T08:57:39.872Z,94813.00
2023-05-06T08:58:39.935Z,94815.00
2023-05-06T08:59:39.907Z,94812.00
2023-05-06T09:00:39.919Z,94812.00
2023-05-06T09:01:40.047Z,94813.00
2023-05-06T09:02:42.831Z,94812.00
2023-05-06T09:03:39.998Z,94810.00
2023-05-06T09:04:39.953Z,94810.00
2023-05-06T09:05:39.954Z,94808.00
2023-05-06T09:06:39.939Z,94810.00
2023-05-06T09:07:39.945Z,94802.00
2023-05-06T09:08:39.940Z,94804.00
2023-05-06T09:09:39.922Z,94802.00
2023-05-06T09:10:40.545Z,94800.00
2023-05-06T09:11:39.913Z,94794.00
2023-05-06T09:12:39.926Z,94794.00
2023-05-06T09:13:39.942Z,94800.00
2023-05-06T09:14:39.931Z,94794.00
2023-05-06T09:15:39.887Z,94794.00
2023-05-06T09:16:39.878Z,94794.00
2023-05-06T09:17:39.877Z,94792.00
2023-05-06T09:18:39.881Z,94792.00
2023-05-06T09:19:39.862Z,94790.00
2023-05-06T09:20:39.841Z,94790.00
2023-05-06T09:21:39.830Z,94794.00
2023-05-06T09:22:39.814Z,94794.00
2023-05-06T09:23:39.823Z,94796.00
2023-05-06T09:24:39.848Z,94794.00
2023-05-06T09:25:39.813Z,94792.00
2023-05-06T09:26:39.776Z,94792.00
2023-05-06T09:27:39.798Z,94792.00
2023-05-06T09:28:39.770Z,94794.00
2023-05-06T09:29:39.874Z,94796.00
2023-05-06T09:30:39.828Z,94798.00
2023-05-06T09:31:39.782Z,94794.00
2023-05-06T09:32:40.633Z,94798.00
2023-05-06T09:33:39.787Z,94796.00
2023-05-06T09:34:39.753Z,94796.00
2023-05-06T09:35:39.726Z,94796.00
2023-05-06T09:36:39.733Z,94796.00
2023-05-06T09:37:39.744Z,94794.00
2023-05-06T09:38:39.687Z,94796.00
2023-05-06T09:39:39.679Z,94796.00
2023-05-06T09:40:39.697Z,94794.00
2023-05-06T09:41:39.693Z,94794.00
2023-05-06T09:42:39.673Z,94790.00
2023-05-06T09:43:39.685Z,94788.00
2023-05-06T09:44:39.675Z,94786.00
2023-05-06T09:45:39.653Z,94786.00
2023-05-06T09:46:39.734Z,94786.00
2023-05-06T09:47:39.638Z,94786.00
2023-05-06T09:48:39.664Z,94782.00
2023-05-06T09:49:39.633Z,94780.00
2023-05-06T09:50:39.627Z,94782.00
2023-05-06T09:51:39.626Z,94778.00
2023-05-06T09:52:39.623Z,94778.00
2023-05-06T09:53:39.613Z,94780.00
2023-05-06T09:54:39.626Z,94776.00
2023-05-06T09:55:39.597Z,94776.00
2023-05-06T09:56:39.598Z,94776.00
2023-05-06T09:57:39.583Z,94774.00
2023-05-06T09:58:39.656Z,94772.00
2023-05-06T09:59:39.591Z,94772.00
2023-05-06T10:00:39.558Z,94770.00
2023-05-06T10:01:39.578Z,94768.00
2023-05-06T10:02:39.758Z,94766.00
2023-05-06T10:03:39.641Z,94765.00
2023-05-06T10:04:39.728Z,94765.00
2023-05-06T10:05:39.529Z,94766.00
2023-05-06T10:06:39.598Z,94765.00
2023-05-06T10:07:39.502Z,94765.00
2023-05-06T10:08:39.562Z,94763.00
2023-05-06T10:09:39.520Z,94765.00
2023-05-06T10:10:39.529Z,94763.00
2023-05-06T10:11:39.477Z,94765.00
2023-05-06T10:12:39.566Z,94763.00
2023-05-06T10:13:39.534Z,94763.00
2023-05-06T10:14:39.472Z,94763.00
2023-05-06T10:15:39.462Z,94763.00
2023-05-06T10:16:39.570Z,94761.00
2023-05-06T10:17:40.142Z,94761.00
2023-05-06T10:18:39.513Z,94761.00
2023-05-06T10:19:39.431Z,94761.00
2023-05-06T10:20:39.407Z,94759.00
2023-05-06T10:21:39.416Z,94759.00
2023-05-06T10:22:39.472Z,94757.00
2023-05-06T10:23:39.544Z,94759.00
2023-05-06T10:24:39.420Z,94759.00
2023-05-06T10:25:39.414Z,94757.00
2023-05-06T10:26:39.443Z,94755.00
2023-05-06T10:27:39.418Z,94759.00
2023-05-06T10:28:39.423Z,94755.00
2023-05-06T10:29:39.440Z,94755.00
2023-05-06T10:30:39.473Z,94757.00
2023-05-06T10:31:39.516Z,94755.00
2023-05-06T10:32:39.520Z,94755.00
2023-05-06T10:33:41.622Z,94753.00
2023-05-06T10:34:39.518Z,94753.00
2023-05-06T10:35:39.497Z,94751.00
2023-05-06T10:36:39.520Z,94749.00
2023-05-06T10:37:39.503Z,94749.00
2023-05-06T10:38:39.498Z,94747.00
2023-05-06T10:39:41.422Z,94745.00
2023-05-06T10:40:39.622Z,94743.00
2023-05-06T10:41:39.647Z,94743.00
2023-05-06T10:42:39.645Z,94743.00
2023-05-06T10:43:39.672Z,94743.00
2023-05-06T10:44:39.687Z,94739.00
2023-05-06T10:45:39.682Z,94737.00
2023-05-06T10:46:39.733Z,94735.00
2023-05-06T10:47:39.674Z,94733.00
2023-05-06T10:48:39.667Z,94733.00
2023-05-06T10:49:39.703Z,94733.00
2023-05-06T10:50:39.732Z,94733.00
2023-05-06T10:51:39.724Z,94733.00
2023-05-06T10:52:39.702Z,94733.00
2023-05-06T10:53:39.758Z,94731.00
2023-05-06T10:54:39.726Z,94733.00
2023-05-06T10:55:39.701Z,94731.00
2023-05-06T10:56:39.730Z,94731.00
2023-05-06T10:57:39.778Z,94731.00
2023-05-06T10:58:39.786Z,94729.00
2023-05-06T10:59:39.751Z,94729.00
2023-05-06T11:00:39.753Z,94727.00
2023-05-06T11:01:39.752Z,94729.00
2023-05-06T11:02:39.764Z,94727.00
2023-05-06T11:03:39.773Z,94727.00
2023-05-06T11:04:39.716Z,94727.00
2023-05-06T11:05:39.742Z,94725.00
2023-05-06T11:06:39.805Z,94725.00
2023-05-06T11:07:39.750Z,94723.00
2023-05-06T11:08:39.744Z,94725.00
2023-05-06T11:09:39.751Z,94723.00
2023-05-06T11:10:39.733Z,94725.00
2023-05-06T11:11:39.739Z,94727.00
2023-05-06T11:12:39.812Z,94727.00
2023-05-06T11:13:39.779Z,94727.00
2023-05-06T11:14:39.752Z,94731.00
2023-05-06T11:15:39.763Z,94729.00
2023-05-06T11:16:39.826Z,94727.00
2023-05-06T11:17:39.799Z,94729.00
2023-05-06T11:18:40.144Z,94729.00
2023-05-06T11:19:39.777Z,94727.00
2023-05-06T11:20:39.776Z,94733.00
2023-05-06T11:21:39.783Z,94733.00
2023-05-06T11:22:39.800Z,94731.00
2023-05-06T11:23:39.800Z,94731.00
2023-05-06T11:24:39.806Z,94731.00
2023-05-06T11:25:39.751Z,94731.00
2023-05-06T11:26:39.804Z,94733.00
2023-05-06T11:27:39.821Z,94729.00
2023-05-06T11:28:39.757Z,94727.00
2023-05-06T11:29:39.760Z,94727.00
2023-05-06T11:30:39.859Z,94729.00
2023-05-06T11:31:39.786Z,94727.00
2023-05-06T11:32:39.817Z,94727.00
2023-05-06T11:33:39.795Z,94725.00
2023-05-06T11:34:39.769Z,94725.00
2023-05-06T11:35:39.785Z,94727.00
2023-05-06T11:36:39.757Z,94723.00
2023-05-06T11:37:39.795Z,94721.00
2023-05-06T11:38:39.834Z,94719.00
2023-05-06T11:39:41.064Z,94716.00
2023-05-06T11:40:39.736Z,94716.00
2023-05-06T11:41:39.789Z,94716.00
2023-05-06T11:42:39.746Z,94714.00
2023-05-06T11:43:39.814Z,94712.00
2023-05-06T11:44:39.828Z,94708.00